createdAt,value
2018-08-17T00:01:57.024Z,63.43
2018-08-17T00:04:26.299Z,63.33
2018-08-17T00:06:55.399Z,63.62
2018-08-17T00:09:24.451Z,63.76
2018-08-17T00:11:53.482Z,63.49
2018-08-17T00:14:23.118Z,63.45
2018-08-17T00:16:52.317Z,63.66
2018-08-17T00:19:21.337Z,63.61
2018-08-17T00:21:50.895Z,63.76
2018-08-17T00:24:20.465Z,63.66
2018-08-17T00:26:49.541Z,63.51
2018-08-17T00:29:18.864Z,63.31
2018-08-17T00:31:48.481Z,63.38
2018-08-17T00:34:17.695Z,63.56
2018-08-17T00:36:47.039Z,63.67
2018-08-17T00:39:16.476Z,63.74
2018-08-17T00:41:45.759Z,63.53
2018-08-17T00:44:15.024Z,63.60
2018-08-17T00:46:44.481Z,63.76
2018-08-17T00:49:13.807Z,63.89
2018-08-17T00:51:43.289Z,63.57
2018-08-17T00:54:12.855Z,63.75
2018-08-17T00:56:42.375Z,63.65
2018-08-17T00:59:11.924Z,63.77
2018-08-17T01:01:41.316Z,63.80
2018-08-17T01:04:12.239Z,63.66
2018-08-17T01:06:41.652Z,63.91
2018-08-17T01:09:12.104Z,63.96
2018-08-17T01:11:41.574Z,63.85
2018-08-17T01:14:10.829Z,63.69
2018-08-17T01:16:41.122Z,63.81
2018-08-17T01:19:10.786Z,63.93
2018-08-17T01:21:40.156Z,63.76
2018-08-17T01:24:09.468Z,63.59
2018-08-17T01:26:38.471Z,63.57
2018-08-17T01:29:08.047Z,63.56
2018-08-17T01:31:37.615Z,63.73
2018-08-17T01:34:07.134Z,63.94
2018-08-17T01:37:50.327Z,64.05
2018-08-17T01:40:19.359Z,63.94
2018-08-17T01:42:48.560Z,64.00
2018-08-17T01:45:17.543Z,63.83
2018-08-17T01:47:46.790Z,63.81
2018-08-17T01:50:16.203Z,64.04
2018-08-17T01:52:45.571Z,63.73
2018-08-17T01:55:14.659Z,63.74
2018-08-17T01:57:43.917Z,63.83
2018-08-17T02:00:14.594Z,63.63
2018-08-17T02:02:43.790Z,63.79
2018-08-17T02:05:13.127Z,63.80
2018-08-17T02:07:42.420Z,63.84
2018-08-17T02:10:12.508Z,63.68
2018-08-17T02:12:41.515Z,64.06
2018-08-17T02:15:10.578Z,63.94
2018-08-17T02:17:39.820Z,64.06
2018-08-17T02:20:08.862Z,63.92
2018-08-17T02:22:37.863Z,63.89
2018-08-17T02:25:06.895Z,64.07
2018-08-17T02:27:35.909Z,64.11
2018-08-17T02:30:05.648Z,63.84
2018-08-17T02:32:35.811Z,64.14
2018-08-17T02:35:05.016Z,63.84
2018-08-17T02:37:34.090Z,64.00
2018-08-17T02:40:03.126Z,64.07
2018-08-17T02:42:32.487Z,63.96
2018-08-17T02:45:01.465Z,64.18
2018-08-17T02:47:30.453Z,63.78
2018-08-17T02:49:59.894Z,64.00
2018-08-17T02:52:28.877Z,64.22
2018-08-17T02:54:58.002Z,63.82
2018-08-17T02:57:27.518Z,64.00
2018-08-17T02:59:56.926Z,64.25
2018-08-17T03:02:25.995Z,64.11
2018-08-17T03:04:55.160Z,64.11
2018-08-17T03:07:24.522Z,64.24
2018-08-17T03:09:53.991Z,64.16
2018-08-17T03:12:23.395Z,64.02
2018-08-17T03:14:52.830Z,63.90
2018-08-17T03:17:22.484Z,63.76
2018-08-17T03:19:52.258Z,63.74
2018-08-17T03:22:21.850Z,63.88
2018-08-17T03:24:52.009Z,63.98
2018-08-17T03:27:21.357Z,63.64
2018-08-17T03:29:50.779Z,63.98
2018-08-17T03:32:20.378Z,63.74
2018-08-17T03:34:49.666Z,63.94
2018-08-17T03:37:19.028Z,63.83
2018-08-17T03:39:48.377Z,64.14
2018-08-17T03:42:17.986Z,63.99
2018-08-17T03:44:47.487Z,63.72
2018-08-17T03:47:16.990Z,63.81
2018-08-17T03:49:46.409Z,64.19
2018-08-17T03:52:15.998Z,64.18
2018-08-17T03:54:45.414Z,64.19
2018-08-17T03:57:14.798Z,63.82
2018-08-17T03:59:44.298Z,63.84
2018-08-17T04:02:15.083Z,64.03
2018-08-17T04:04:44.665Z,63.91
2018-08-17T04:07:14.154Z,63.89
2018-08-17T04:09:45.588Z,64.17
2018-08-17T04:12:17.446Z,63.99
2018-08-17T04:14:47.146Z,64.02
2018-08-17T04:17:16.579Z,63.92
2018-08-17T04:19:45.878Z,64.04
2018-08-17T04:22:15.416Z,63.73
2018-08-17T04:24:45.049Z,64.27
2018-08-17T04:27:15.602Z,64.08
2018-08-17T04:29:45.122Z,64.13
2018-08-17T04:32:14.538Z,64.07
2018-08-17T04:34:43.797Z,64.22
2018-08-17T04:37:13.937Z,64.17
2018-08-17T04:39:43.317Z,63.91
2018-08-17T04:42:12.633Z,64.01
2018-08-17T04:44:41.935Z,64.07
2018-08-17T04:47:11.251Z,63.88
2018-08-17T04:49:40.987Z,64.21
2018-08-17T04:52:10.333Z,64.09
2018-08-17T04:54:40.050Z,64.42
2018-08-17T04:57:09.359Z,64.35
2018-08-17T04:59:39.682Z,64.55
2018-08-17T05:02:09.123Z,64.31
2018-08-17T05:04:38.627Z,64.32
2018-08-17T05:07:08.643Z,64.34
2018-08-17T05:09:37.838Z,65.26
2018-08-17T05:12:06.890Z,65.61
2018-08-17T05:14:36.712Z,65.78
2018-08-17T05:17:06.249Z,66.23
2018-08-17T05:19:35.610Z,66.15
2018-08-17T05:22:05.115Z,66.27
2018-08-17T05:24:34.933Z,66.28
2018-08-17T05:27:04.335Z,66.31
2018-08-17T05:29:34.273Z,66.38
2018-08-17T05:32:04.596Z,66.23
2018-08-17T05:34:34.430Z,66.02
2018-08-17T05:37:04.044Z,65.61
2018-08-17T05:39:34.054Z,65.88
2018-08-17T05:42:03.403Z,65.69
2018-08-17T05:44:33.013Z,65.62
2018-08-17T05:47:02.447Z,65.43
2018-08-17T05:49:32.427Z,65.50
2018-08-17T05:52:01.973Z,65.64
2018-08-17T05:54:31.579Z,65.15
2018-08-17T05:57:00.853Z,65.28
2018-08-17T05:59:30.412Z,65.50
2018-08-17T06:02:00.342Z,65.13
2018-08-17T06:04:29.933Z,65.49
2018-08-17T06:06:59.341Z,65.26
2018-08-17T06:09:28.767Z,65.45
2018-08-17T06:12:04.376Z,65.14
2018-08-17T06:14:36.484Z,65.09
2018-08-17T06:17:05.635Z,64.93
2018-08-17T06:19:35.535Z,65.30
2018-08-17T06:22:04.912Z,64.83
2018-08-17T06:24:34.242Z,64.81
2018-08-17T06:27:03.385Z,64.66
2018-08-17T06:29:33.256Z,64.55
2018-08-17T06:32:02.835Z,64.87
2018-08-17T06:34:32.636Z,64.77
2018-08-17T06:37:02.313Z,64.79
2018-08-17T06:39:31.686Z,64.95
2018-08-17T06:42:01.527Z,64.83
2018-08-17T06:44:32.038Z,64.98
2018-08-17T06:47:01.433Z,65.24
2018-08-17T06:49:32.164Z,65.38
2018-08-17T06:52:01.916Z,65.38
2018-08-17T06:54:32.889Z,65.49
2018-08-17T06:57:04.488Z,65.50
2018-08-17T06:59:36.562Z,65.22
2018-08-17T07:02:05.770Z,65.30
2018-08-17T07:04:35.694Z,65.58
2018-08-17T07:07:05.325Z,65.78
2018-08-17T07:09:34.596Z,65.39
2018-08-17T07:12:04.642Z,65.61
2018-08-17T07:14:34.185Z,65.92
2018-08-17T07:17:03.514Z,65.71
2018-08-17T07:19:33.193Z,65.85
2018-08-17T07:22:02.515Z,65.73
2018-08-17T07:24:31.929Z,65.63
2018-08-17T07:27:01.334Z,66.17
2018-08-17T07:29:30.827Z,65.68
2018-08-17T07:32:01.318Z,66.10
2018-08-17T07:34:31.707Z,65.76
2018-08-17T07:37:01.283Z,65.62
2018-08-17T07:39:30.435Z,65.69
2018-08-17T07:41:59.999Z,66.13
2018-08-17T07:44:30.437Z,65.71
2018-08-17T07:46:59.798Z,66.02
2018-08-17T07:49:28.830Z,66.25
2018-08-17T07:51:58.073Z,66.25
2018-08-17T07:54:27.244Z,65.88
2018-08-17T07:56:56.321Z,65.83
2018-08-17T07:59:25.836Z,66.12
2018-08-17T08:01:55.705Z,65.89
2018-08-17T08:04:26.332Z,65.91
2018-08-17T08:06:56.747Z,66.28
2018-08-17T08:09:26.260Z,65.77
2018-08-17T08:11:55.574Z,66.11
2018-08-17T08:14:24.786Z,66.10
2018-08-17T08:16:54.253Z,66.05
2018-08-17T08:19:23.761Z,65.60
2018-08-17T08:21:53.305Z,65.67
2018-08-17T08:24:22.579Z,65.72
2018-08-17T08:26:51.622Z,65.40
2018-08-17T08:29:21.609Z,65.77
2018-08-17T08:31:51.046Z,65.27
2018-08-17T08:34:20.391Z,65.67
2018-08-17T08:36:49.883Z,65.42
2018-08-17T08:39:19.314Z,65.48
2018-08-17T08:41:48.789Z,65.40
2018-08-17T08:44:17.987Z,65.28
2018-08-17T08:49:11.454Z,65.31
2018-08-17T08:51:40.857Z,65.15
2018-08-17T08:54:10.789Z,64.83
2018-08-17T08:56:40.409Z,64.91
2018-08-17T08:59:09.903Z,65.18
2018-08-17T09:01:40.773Z,64.90
2018-08-17T09:04:10.111Z,65.04
2018-08-17T09:06:39.538Z,64.96
2018-08-17T09:09:09.968Z,64.75
2018-08-17T09:11:39.194Z,64.98
2018-08-17T09:14:08.377Z,64.89
2018-08-17T09:16:37.571Z,64.41
2018-08-17T09:19:06.885Z,64.45
2018-08-17T09:21:36.113Z,64.60
2018-08-17T09:24:16.129Z,64.50
2018-08-17T09:26:45.375Z,64.43
2018-08-17T09:29:14.651Z,64.51
2018-08-17T09:31:43.855Z,64.65
2018-08-17T09:34:16.217Z,64.22
2018-08-17T09:36:46.130Z,64.17
2018-08-17T09:39:15.379Z,64.40
2018-08-17T09:41:45.596Z,64.24
2018-08-17T09:44:14.771Z,64.18
2018-08-17T09:46:44.913Z,64.64
2018-08-17T09:49:14.537Z,64.56
2018-08-17T09:51:45.213Z,64.37
2018-08-17T09:54:14.410Z,63.97
2018-08-17T09:56:43.677Z,64.11
2018-08-17T09:59:12.899Z,64.28
2018-08-17T10:01:47.561Z,64.37
2018-08-17T10:04:24.667Z,64.15
2018-08-17T10:06:59.590Z,64.24
2018-08-17T10:09:33.969Z,63.90
2018-08-17T10:12:03.875Z,64.00
2018-08-17T10:14:33.352Z,64.14
2018-08-17T10:17:03.198Z,64.47
2018-08-17T10:19:32.652Z,64.29
2018-08-17T10:22:02.486Z,64.58
2018-08-17T10:24:31.707Z,64.61
2018-08-17T10:27:01.218Z,64.55
2018-08-17T10:29:30.406Z,64.36
2018-08-17T10:32:00.001Z,64.29
2018-08-17T10:34:31.401Z,63.97
2018-08-17T10:37:01.580Z,64.11
2018-08-17T10:39:31.142Z,63.88
2018-08-17T10:42:00.336Z,64.13
2018-08-17T10:44:32.833Z,63.76
2018-08-17T10:47:03.997Z,63.87
2018-08-17T10:49:33.188Z,63.68
2018-08-17T10:52:03.141Z,63.89
2018-08-17T10:54:32.722Z,63.60
2018-08-17T10:57:02.394Z,63.87
2018-08-17T10:59:31.688Z,63.80
2018-08-17T11:02:01.085Z,63.56
2018-08-17T11:04:30.274Z,63.88
2018-08-17T11:06:59.796Z,63.78
2018-08-17T11:09:31.823Z,63.76
2018-08-17T11:12:06.193Z,63.46
2018-08-17T11:14:35.390Z,63.84
2018-08-17T11:17:05.376Z,63.72
2018-08-17T11:19:34.866Z,63.49
2018-08-17T11:22:04.183Z,64.01
2018-08-17T11:24:33.646Z,63.99
2018-08-17T11:27:03.635Z,64.10
2018-08-17T11:29:33.103Z,64.15
2018-08-17T11:32:02.617Z,64.01
2018-08-17T11:34:32.270Z,63.58
2018-08-17T11:37:01.512Z,63.49
2018-08-17T11:39:30.721Z,63.62
2018-08-17T11:41:59.982Z,63.45
2018-08-17T11:44:34.451Z,63.72
2018-08-17T11:47:06.249Z,63.73
2018-08-17T11:49:35.425Z,63.71
2018-08-17T11:52:04.653Z,63.91
2018-08-17T11:54:33.834Z,63.65
2018-08-17T11:57:03.542Z,63.63
2018-08-17T11:59:32.718Z,63.90
2018-08-17T12:02:02.137Z,63.55
2018-08-17T12:04:31.721Z,63.77
2018-08-17T12:07:00.957Z,63.44
2018-08-17T12:09:31.323Z,63.92
2018-08-17T12:12:00.998Z,63.63
2018-08-17T12:14:30.201Z,63.76
2018-08-17T12:16:59.425Z,63.99
2018-08-17T12:19:28.631Z,63.58
2018-08-17T12:21:57.917Z,63.93
2018-08-17T12:24:27.253Z,63.79
2018-08-17T12:26:56.485Z,64.16
2018-08-17T12:29:25.704Z,63.82
2018-08-17T12:31:54.945Z,63.68
2018-08-17T12:34:24.197Z,63.59
2018-08-17T12:36:53.944Z,63.98
2018-08-17T12:39:24.063Z,63.60
2018-08-17T12:41:53.635Z,63.66
2018-08-17T12:44:23.121Z,63.45
2018-08-17T12:46:52.366Z,63.73
2018-08-17T12:49:21.555Z,63.78
2018-08-17T12:51:50.769Z,63.60
2018-08-17T12:54:28.849Z,63.33
2018-08-17T12:56:58.068Z,63.54
2018-08-17T12:59:27.290Z,63.38
2018-08-17T13:01:56.827Z,63.33
2018-08-17T13:04:27.041Z,63.24
2018-08-17T13:06:56.315Z,63.15
2018-08-17T13:09:25.497Z,63.67
2018-08-17T13:11:59.568Z,63.60
2018-08-17T13:14:30.126Z,63.76
2018-08-17T13:17:01.429Z,63.75
2018-08-17T13:19:31.811Z,63.81
2018-08-17T13:22:03.066Z,64.18
2018-08-17T13:24:32.257Z,64.00
2018-08-17T13:27:01.417Z,63.61
2018-08-17T13:29:30.915Z,64.11
2018-08-17T13:32:00.121Z,63.85
2018-08-17T13:34:29.282Z,63.80
2018-08-17T13:36:58.456Z,64.23
2018-08-17T13:39:27.665Z,63.97
2018-08-17T13:41:56.848Z,63.97
2018-08-17T13:44:26.047Z,64.37
2018-08-17T13:46:55.277Z,63.56
2018-08-17T13:49:24.505Z,64.08
2018-08-17T13:51:53.748Z,63.73
2018-08-17T13:54:22.960Z,63.65
2018-08-17T13:56:52.528Z,63.56
2018-08-17T13:59:21.744Z,63.77
2018-08-17T14:01:56.399Z,63.55
2018-08-17T14:04:25.755Z,63.88
2018-08-17T14:06:55.254Z,63.50
2018-08-17T14:09:24.838Z,64.02
2018-08-17T14:11:54.265Z,63.40
2018-08-17T14:14:23.585Z,63.42
2018-08-17T14:16:52.851Z,63.11
2018-08-17T14:19:22.578Z,63.13
2018-08-17T14:21:51.775Z,63.40
2018-08-17T14:24:21.749Z,62.99
2018-08-17T14:26:51.269Z,63.49
2018-08-17T14:29:20.752Z,63.32
2018-08-17T14:31:51.024Z,63.49
2018-08-17T14:34:20.647Z,63.55
2018-08-17T14:36:50.306Z,63.47
2018-08-17T14:39:20.219Z,63.49
2018-08-17T14:41:58.569Z,63.30
2018-08-17T14:44:32.922Z,63.18
2018-08-17T14:47:02.922Z,62.99
2018-08-17T14:49:32.919Z,63.10
2018-08-17T14:52:02.352Z,63.53
2018-08-17T14:54:35.314Z,62.95
2018-08-17T14:57:06.244Z,63.33
2018-08-17T14:59:37.643Z,63.60
2018-08-17T15:02:07.724Z,63.56
2018-08-17T15:04:41.611Z,63.29
2018-08-17T15:07:10.961Z,63.35
2018-08-17T15:09:41.122Z,63.13
2018-08-17T15:12:11.803Z,63.63
2018-08-17T15:14:41.090Z,63.47
2018-08-17T15:17:10.384Z,63.66
2018-08-17T15:19:39.780Z,63.84
2018-08-17T15:22:09.010Z,63.47
2018-08-17T15:24:38.685Z,63.60
2018-08-17T15:27:08.116Z,63.32
2018-08-17T15:29:37.454Z,63.17
2018-08-17T15:32:07.266Z,63.03
2018-08-17T15:34:37.404Z,63.40
2018-08-17T15:37:06.602Z,63.12
2018-08-17T15:39:35.782Z,63.12
2018-08-17T15:42:05.078Z,63.51
2018-08-17T15:44:34.520Z,63.46
2018-08-17T15:47:04.930Z,63.09
2018-08-17T15:49:35.930Z,63.64
2018-08-17T15:52:06.296Z,63.25
2018-08-17T15:54:35.513Z,63.20
2018-08-17T15:57:05.905Z,63.22
2018-08-17T15:59:35.230Z,63.25
2018-08-17T16:02:04.379Z,63.44
2018-08-17T16:04:33.691Z,62.82
2018-08-17T16:07:06.430Z,63.38
2018-08-17T16:09:37.125Z,62.93
2018-08-17T16:12:10.110Z,63.14
2018-08-17T16:14:48.191Z,63.12
2018-08-17T16:17:18.269Z,63.45
2018-08-17T16:19:47.438Z,63.43
2018-08-17T16:22:16.668Z,63.66
2018-08-17T16:24:45.863Z,63.18
2018-08-17T16:27:15.065Z,63.28
2018-08-17T16:29:44.245Z,63.50
2018-08-17T16:32:13.920Z,63.67
2018-08-17T16:34:43.038Z,63.16
2018-08-17T16:37:12.100Z,63.50
2018-08-17T16:39:47.047Z,63.61
2018-08-17T16:42:47.696Z,63.22
2018-08-17T16:45:16.841Z,62.82
2018-08-17T16:47:46.032Z,62.40
2018-08-17T16:50:15.733Z,62.45
2018-08-17T16:52:44.860Z,62.24
2018-08-17T16:55:14.030Z,62.06
2018-08-17T16:57:43.150Z,61.94
2018-08-17T17:00:12.694Z,61.37
2018-08-17T17:02:41.824Z,60.84
2018-08-17T17:05:10.880Z,60.67
2018-08-17T17:07:40.368Z,60.73
2018-08-17T17:10:10.383Z,60.77
2018-08-17T17:18:04.515Z,60.28
2018-08-17T17:20:35.609Z,60.02
2018-08-17T17:23:06.298Z,59.53
2018-08-17T17:25:35.391Z,59.64
2018-08-17T17:28:04.783Z,58.88
2018-08-17T17:31:08.798Z,58.75
2018-08-17T17:33:37.953Z,59.07
2018-08-17T17:36:07.241Z,58.85
2018-08-17T17:38:36.737Z,58.73
2018-08-17T17:41:05.996Z,58.53
2018-08-17T17:43:35.145Z,58.82
2018-08-17T17:46:04.403Z,58.60
2018-08-17T17:48:33.681Z,58.31
2018-08-17T17:51:02.814Z,58.24
2018-08-17T17:53:31.966Z,58.31
2018-08-17T17:56:01.541Z,58.01
2018-08-17T17:58:30.614Z,58.30
2018-08-17T18:01:04.885Z,57.97
2018-08-17T18:03:34.482Z,58.13
2018-08-17T18:06:06.603Z,58.38
2018-08-17T18:08:36.249Z,58.32
2018-08-17T18:11:05.865Z,58.21
2018-08-17T18:13:36.162Z,58.12
2018-08-17T18:16:05.305Z,58.02
2018-08-17T18:18:34.401Z,57.65
2018-08-17T18:21:03.522Z,57.92
2018-08-17T18:23:33.183Z,57.94
2018-08-17T18:26:02.782Z,58.11
2018-08-17T18:28:31.976Z,58.01
2018-08-17T18:31:01.564Z,57.83
2018-08-17T18:33:31.054Z,57.89
2018-08-17T18:36:00.349Z,58.44
2018-08-17T18:38:30.586Z,58.49
2018-08-17T18:41:01.345Z,58.67
2018-08-17T18:43:30.616Z,58.77
2018-08-17T18:45:59.878Z,59.17
2018-08-17T18:48:29.726Z,59.32
2018-08-17T18:50:58.941Z,59.62
2018-08-17T18:53:28.194Z,59.82
2018-08-17T18:55:57.439Z,60.34
2018-08-17T18:58:26.762Z,60.68
2018-08-17T19:00:57.209Z,60.62
2018-08-17T19:03:26.402Z,60.47
2018-08-17T19:05:55.620Z,60.85
2018-08-17T19:08:25.270Z,60.68
2018-08-17T19:10:54.537Z,61.00
2018-08-17T19:13:23.859Z,61.04
2018-08-17T19:15:54.311Z,61.20
2018-08-17T19:18:25.683Z,61.62
2018-08-17T19:20:54.896Z,61.37
2018-08-17T19:23:24.104Z,61.59
2018-08-17T19:25:54.730Z,61.88
2018-08-17T19:28:23.964Z,62.17
2018-08-17T19:30:53.213Z,62.50
2018-08-17T19:33:22.602Z,62.53
2018-08-17T19:35:52.136Z,62.55
2018-08-17T19:38:21.556Z,62.74
2018-08-17T19:40:51.083Z,62.67
2018-08-17T19:43:20.406Z,62.88
2018-08-17T19:45:49.950Z,62.82
2018-08-17T19:48:19.127Z,63.01
2018-08-17T19:50:49.007Z,63.24
2018-08-17T19:53:18.232Z,63.26
2018-08-17T19:55:47.502Z,63.66
2018-08-17T19:58:16.774Z,63.62
2018-08-17T20:00:46.065Z,63.76
2018-08-17T20:03:15.691Z,63.96
2018-08-17T20:05:44.900Z,63.98
2018-08-17T20:08:14.261Z,63.85
2018-08-17T20:10:43.558Z,64.22
2018-08-17T20:13:13.331Z,64.11
2018-08-17T20:15:42.814Z,64.41
2018-08-17T20:18:12.066Z,64.48
2018-08-17T20:20:41.397Z,64.53
2018-08-17T20:23:10.701Z,64.17
2018-08-17T20:25:39.972Z,64.25
2018-08-17T20:28:09.242Z,64.37
2018-08-17T20:30:38.581Z,64.83
2018-08-17T20:33:36.719Z,64.76
2018-08-17T20:36:06.029Z,64.77
2018-08-17T20:38:36.016Z,64.73
2018-08-17T20:41:05.582Z,64.66
2018-08-17T20:43:34.797Z,65.03
2018-08-17T20:46:04.308Z,65.08
2018-08-17T20:48:33.656Z,64.98
2018-08-17T20:51:09.453Z,65.30
2018-08-17T20:53:39.116Z,64.98
2018-08-17T20:56:08.465Z,65.22
2018-08-17T20:58:38.052Z,65.47
2018-08-17T21:01:07.588Z,65.19
2018-08-17T21:03:36.733Z,65.41
2018-08-17T21:06:05.917Z,65.52
2018-08-17T21:08:35.034Z,65.19
2018-08-17T21:11:04.171Z,65.65
2018-08-17T21:13:33.924Z,65.31
2018-08-17T21:16:03.023Z,65.68
2018-08-17T21:18:32.113Z,65.51
2018-08-17T21:21:01.785Z,65.59
2018-08-17T21:23:30.847Z,65.58
2018-08-17T21:25:59.919Z,65.52
2018-08-17T21:28:29.009Z,65.68
2018-08-17T21:30:58.186Z,65.59
2018-08-17T21:33:27.300Z,65.62
2018-08-17T21:35:56.953Z,65.49
2018-08-17T21:38:26.162Z,65.71
2018-08-17T21:40:55.250Z,65.83
2018-08-17T21:43:24.320Z,65.87
2018-08-17T21:45:57.477Z,65.50
2018-08-17T21:48:28.281Z,65.76
2018-08-17T21:50:57.665Z,65.59
2018-08-17T21:53:26.767Z,65.80
2018-08-17T21:56:58.824Z,65.47
2018-08-17T21:59:38.679Z,65.55
2018-08-17T22:02:10.564Z,65.84
2018-08-17T22:04:39.789Z,65.62
2018-08-17T22:07:14.009Z,65.77
2018-08-17T22:09:43.887Z,65.66
2018-08-17T22:12:13.557Z,66.08
2018-08-17T22:14:42.717Z,66.10
2018-08-17T22:17:22.011Z,66.07
2018-08-17T22:19:51.663Z,65.78
2018-08-17T22:22:20.758Z,65.75
2018-08-17T22:24:54.813Z,65.92
2018-08-17T22:27:24.748Z,65.81
2018-08-17T22:29:55.165Z,66.10
2018-08-17T22:32:24.620Z,65.82
2018-08-17T22:34:53.889Z,66.20
2018-08-17T22:37:23.009Z,66.15
2018-08-17T22:39:52.221Z,66.16
2018-08-17T22:42:22.999Z,65.89
2018-08-17T22:44:52.385Z,66.05
2018-08-17T22:47:27.836Z,66.06
2018-08-17T22:49:58.804Z,66.21
2018-08-17T22:52:28.768Z,66.37
2018-08-17T22:54:59.593Z,66.06
2018-08-17T22:57:29.398Z,66.02
2018-08-17T23:00:12.594Z,66.40
2018-08-17T23:02:42.969Z,66.15
2018-08-17T23:05:14.420Z,66.28
2018-08-17T23:07:44.329Z,66.19
2018-08-17T23:10:15.497Z,66.12
2018-08-17T23:12:45.942Z,66.36
2018-08-17T23:15:15.293Z,66.16
2018-08-17T23:17:49.265Z,66.28
2018-08-17T23:20:23.454Z,66.54
2018-08-17T23:22:53.778Z,66.57
2018-08-17T23:25:23.011Z,66.55
2018-08-17T23:27:52.481Z,66.41
2018-08-17T23:30:21.652Z,66.43
2018-08-17T23:32:51.181Z,66.46
2018-08-17T23:35:20.459Z,66.19
2018-08-17T23:37:49.647Z,66.50
2018-08-17T23:40:18.873Z,66.19
2018-08-17T23:42:48.095Z,66.21
2018-08-17T23:45:18.343Z,66.36
2018-08-17T23:47:47.599Z,66.17
2018-08-17T23:50:17.408Z,66.45
2018-08-17T23:52:46.589Z,66.26
2018-08-17T23:55:17.415Z,66.23
2018-08-17T23:57:46.753Z,66.36
